sensor_id;sensor_type;location;lat;lon;timestamp;P1;durP1;ratioP1;P2;durP2;ratioP2
18336;SDS011;9294;51.106;7.028;2023-02-10T00:01:51;7.07;;;6.47;;
18336;SDS011;9294;51.106;7.028;2023-02-10T00:04:18;6.13;;;5.65;;
18336;SDS011;9294;51.106;7.028;2023-02-10T00:06:45;6.68;;;6.20;;
18336;SDS011;9294;51.106;7.028;2023-02-10T00:09:12;6.65;;;6.15;;
18336;SDS011;9294;51.106;7.028;2023-02-10T00:11:41;6.13;;;5.70;;
18336;SDS011;9294;51.106;7.028;2023-02-10T00:14:24;6.20;;;5.78;;
18336;SDS011;9294;51.106;7.028;2023-02-10T00:16:52;6.88;;;6.28;;
18336;SDS011;9294;51.106;7.028;2023-02-10T00:19:19;6.05;;;5.65;;
18336;SDS011;9294;51.106;7.028;2023-02-10T00:21:47;6.10;;;5.70;;
18336;SDS011;9294;51.106;7.028;2023-02-10T00:24:14;7.38;;;6.78;;
18336;SDS011;9294;51.106;7.028;2023-02-10T00:26:42;6.38;;;5.90;;
18336;SDS011;9294;51.106;7.028;2023-02-10T00:29:09;6.78;;;6.28;;
18336;SDS011;9294;51.106;7.028;2023-02-10T00:31:36;6.72;;;6.22;;
18336;SDS011;9294;51.106;7.028;2023-02-10T00:34:02;6.60;;;6.10;;
18336;SDS011;9294;51.106;7.028;2023-02-10T00:36:29;6.90;;;6.40;;
18336;SDS011;9294;51.106;7.028;2023-02-10T00:38:56;6.70;;;6.20;;
18336;SDS011;9294;51.106;7.028;2023-02-10T00:41:23;7.43;;;6.72;;
18336;SDS011;9294;51.106;7.028;2023-02-10T00:43:51;6.85;;;6.32;;
18336;SDS011;9294;51.106;7.028;2023-02-10T00:46:19;7.20;;;6.50;;
18336;SDS011;9294;51.106;7.028;2023-02-10T00:48:47;7.57;;;7.00;;
18336;SDS011;9294;51.106;7.028;2023-02-10T00:51:15;6.90;;;6.40;;
18336;SDS011;9294;51.106;7.028;2023-02-10T00:53:42;7.10;;;6.50;;
18336;SDS011;9294;51.106;7.028;2023-02-10T00:56:09;6.88;;;6.38;;
18336;SDS011;9294;51.106;7.028;2023-02-10T00:58:36;7.03;;;6.50;;
18336;SDS011;9294;51.106;7.028;2023-02-10T01:01:05;6.57;;;6.15;;
18336;SDS011;9294;51.106;7.028;2023-02-10T01:03:32;6.47;;;5.97;;
18336;SDS011;9294;51.106;7.028;2023-02-10T01:05:58;6.70;;;6.28;;
18336;SDS011;9294;51.106;7.028;2023-02-10T01:08:25;7.20;;;6.70;;
18336;SDS011;9294;51.106;7.028;2023-02-10T01:10:57;7.07;;;6.47;;
18336;SDS011;9294;51.106;7.028;2023-02-10T01:13:24;6.50;;;6.07;;
18336;SDS011;9294;51.106;7.028;2023-02-10T01:15:51;6.65;;;6.05;;
18336;SDS011;9294;51.106;7.028;2023-02-10T01:18:19;6.97;;;6.38;;
18336;SDS011;9294;51.106;7.028;2023-02-10T01:20:46;7.13;;;6.60;;
18336;SDS011;9294;51.106;7.028;2023-02-10T01:23:13;7.38;;;6.88;;
18336;SDS011;9294;51.106;7.028;2023-02-10T01:25:39;6.93;;;6.43;;
18336;SDS011;9294;51.106;7.028;2023-02-10T01:28:06;7.05;;;6.43;;
18336;SDS011;9294;51.106;7.028;2023-02-10T01:30:34;7.57;;;6.97;;
18336;SDS011;9294;51.106;7.028;2023-02-10T01:33:01;7.15;;;6.50;;
18336;SDS011;9294;51.106;7.028;2023-02-10T01:35:29;6.93;;;6.32;;
18336;SDS011;9294;51.106;7.028;2023-02-10T01:37:56;6.90;;;6.40;;
18336;SDS011;9294;51.106;7.028;2023-02-10T01:40:23;7.45;;;6.85;;
18336;SDS011;9294;51.106;7.028;2023-02-10T01:42:51;7.03;;;6.53;;
18336;SDS011;9294;51.106;7.028;2023-02-10T01:45:19;6.53;;;6.03;;
18336;SDS011;9294;51.106;7.028;2023-02-10T01:47:50;7.05;;;6.53;;
18336;SDS011;9294;51.106;7.028;2023-02-10T01:50:20;6.85;;;6.25;;
18336;SDS011;9294;51.106;7.028;2023-02-10T01:52:50;6.95;;;6.45;;
18336;SDS011;9294;51.106;7.028;2023-02-10T01:55:18;7.32;;;6.72;;
18336;SDS011;9294;51.106;7.028;2023-02-10T01:57:47;7.82;;;7.10;;
18336;SDS011;9294;51.106;7.028;2023-02-10T02:00:19;7.18;;;6.57;;
18336;SDS011;9294;51.106;7.028;2023-02-10T02:02:46;6.38;;;5.97;;
18336;SDS011;9294;51.106;7.028;2023-02-10T02:05:21;7.75;;;7.10;;
18336;SDS011;9294;51.106;7.028;2023-02-10T02:07:55;7.25;;;6.57;;
18336;SDS011;9294;51.106;7.028;2023-02-10T02:10:26;6.90;;;6.30;;
18336;SDS011;9294;51.106;7.028;2023-02-10T02:13:01;6.38;;;5.88;;
18336;SDS011;9294;51.106;7.028;2023-02-10T02:15:36;6.90;;;6.30;;
18336;SDS011;9294;51.106;7.028;2023-02-10T02:18:07;7.57;;;6.93;;
18336;SDS011;9294;51.106;7.028;2023-02-10T02:20:53;7.05;;;6.55;;
18336;SDS011;9294;51.106;7.028;2023-02-10T02:24:02;6.95;;;6.45;;
18336;SDS011;9294;51.106;7.028;2023-02-10T02:26:55;6.88;;;6.38;;
18336;SDS011;9294;51.106;7.028;2023-02-10T02:32:56;6.88;;;6.47;;
18336;SDS011;9294;51.106;7.028;2023-02-10T02:35:28;6.65;;;6.15;;
18336;SDS011;9294;51.106;7.028;2023-02-10T02:37:58;7.00;;;6.50;;
18336;SDS011;9294;51.106;7.028;2023-02-10T02:40:25;6.88;;;6.28;;
18336;SDS011;9294;51.106;7.028;2023-02-10T02:42:51;7.45;;;6.85;;
18336;SDS011;9294;51.106;7.028;2023-02-10T02:45:19;7.18;;;6.68;;
18336;SDS011;9294;51.106;7.028;2023-02-10T02:47:56;7.43;;;6.75;;
18336;SDS011;9294;51.106;7.028;2023-02-10T02:50:37;6.90;;;6.40;;
18336;SDS011;9294;51.106;7.028;2023-02-10T02:53:11;7.57;;;6.88;;
18336;SDS011;9294;51.106;7.028;2023-02-10T02:55:48;7.15;;;6.65;;
18336;SDS011;9294;51.106;7.028;2023-02-10T02:58:26;7.18;;;6.57;;
18336;SDS011;9294;51.106;7.028;2023-02-10T03:01:00;7.35;;;6.75;;
18336;SDS011;9294;51.106;7.028;2023-02-10T03:03:32;7.70;;;7.10;;
18336;SDS011;9294;51.106;7.028;2023-02-10T03:06:00;7.20;;;6.63;;
18336;SDS011;9294;51.106;7.028;2023-02-10T03:08:27;8.82;;;6.55;;
18336;SDS011;9294;51.106;7.028;2023-02-10T03:10:55;7.65;;;7.05;;
18336;SDS011;9294;51.106;7.028;2023-02-10T03:13:22;6.50;;;6.05;;
18336;SDS011;9294;51.106;7.028;2023-02-10T03:15:49;6.55;;;6.00;;
18336;SDS011;9294;51.106;7.028;2023-02-10T03:18:15;7.50;;;7.00;;
18336;SDS011;9294;51.106;7.028;2023-02-10T03:20:44;7.35;;;6.78;;
18336;SDS011;9294;51.106;7.028;2023-02-10T03:23:10;7.22;;;6.72;;
18336;SDS011;9294;51.106;7.028;2023-02-10T03:25:37;6.78;;;6.22;;
18336;SDS011;9294;51.106;7.028;2023-02-10T03:28:04;6.50;;;6.10;;
18336;SDS011;9294;51.106;7.028;2023-02-10T03:30:32;7.70;;;7.10;;
18336;SDS011;9294;51.106;7.028;2023-02-10T03:32:59;7.03;;;6.53;;
18336;SDS011;9294;51.106;7.028;2023-02-10T03:35:25;7.97;;;6.57;;
18336;SDS011;9294;51.106;7.028;2023-02-10T03:37:53;7.07;;;6.47;;
18336;SDS011;9294;51.106;7.028;2023-02-10T03:40:20;7.07;;;6.57;;
18336;SDS011;9294;51.106;7.028;2023-02-10T03:42:47;7.10;;;6.43;;
18336;SDS011;9294;51.106;7.028;2023-02-10T03:45:14;6.57;;;6.18;;
18336;SDS011;9294;51.106;7.028;2023-02-10T03:47:40;7.20;;;6.60;;
18336;SDS011;9294;51.106;7.028;2023-02-10T03:50:07;7.45;;;6.85;;
18336;SDS011;9294;51.106;7.028;2023-02-10T03:52:34;6.50;;;6.03;;
18336;SDS011;9294;51.106;7.028;2023-02-10T03:55:02;6.82;;;6.40;;
18336;SDS011;9294;51.106;7.028;2023-02-10T03:57:29;6.97;;;6.47;;
18336;SDS011;9294;51.106;7.028;2023-02-10T03:59:56;7.00;;;6.50;;
18336;SDS011;9294;51.106;7.028;2023-02-10T04:02:22;7.07;;;6.60;;
18336;SDS011;9294;51.106;7.028;2023-02-10T04:04:49;7.60;;;6.90;;
18336;SDS011;9294;51.106;7.028;2023-02-10T04:07:16;6.47;;;6.07;;
18336;SDS011;9294;51.106;7.028;2023-02-10T04:09:42;7.30;;;6.80;;
18336;SDS011;9294;51.106;7.028;2023-02-10T04:12:11;7.32;;;6.72;;
18336;SDS011;9294;51.106;7.028;2023-02-10T04:14:38;6.40;;;5.90;;
18336;SDS011;9294;51.106;7.028;2023-02-10T04:17:04;7.15;;;6.65;;
18336;SDS011;9294;51.106;7.028;2023-02-10T04:19:31;7.20;;;6.65;;
18336;SDS011;9294;51.106;7.028;2023-02-10T04:21:58;7.55;;;6.95;;
18336;SDS011;9294;51.106;7.028;2023-02-10T04:24:24;7.82;;;7.05;;
18336;SDS011;9294;51.106;7.028;2023-02-10T04:26:51;7.30;;;6.80;;
18336;SDS011;9294;51.106;7.028;2023-02-10T04:29:20;6.60;;;6.15;;
18336;SDS011;9294;51.106;7.028;2023-02-10T04:31:47;7.28;;;6.78;;
18336;SDS011;9294;51.106;7.028;2023-02-10T04:34:14;6.70;;;6.25;;
18336;SDS011;9294;51.106;7.028;2023-02-10T04:36:40;7.03;;;6.53;;
18336;SDS011;9294;51.106;7.028;2023-02-10T04:39:07;7.05;;;6.55;;
18336;SDS011;9294;51.106;7.028;2023-02-10T04:41:34;6.45;;;5.97;;
18336;SDS011;9294;51.106;7.028;2023-02-10T04:44:01;6.47;;;6.07;;
18336;SDS011;9294;51.106;7.028;2023-02-10T04:46:29;7.60;;;6.93;;
18336;SDS011;9294;51.106;7.028;2023-02-10T04:48:55;7.53;;;6.93;;
18336;SDS011;9294;51.106;7.028;2023-02-10T04:51:22;6.65;;;6.25;;
18336;SDS011;9294;51.106;7.028;2023-02-10T04:53:49;6.63;;;6.13;;
18336;SDS011;9294;51.106;7.028;2023-02-10T04:56:15;6.38;;;5.88;;
18336;SDS011;9294;51.106;7.028;2023-02-10T04:58:42;7.22;;;6.63;;
18336;SDS011;9294;51.106;7.028;2023-02-10T05:01:09;6.80;;;6.32;;
18336;SDS011;9294;51.106;7.028;2023-02-10T05:03:37;6.30;;;5.90;;
18336;SDS011;9294;51.106;7.028;2023-02-10T05:06:08;6.13;;;5.55;;
18336;SDS011;9294;51.106;7.028;2023-02-10T05:08:35;6.60;;;6.10;;
18336;SDS011;9294;51.106;7.028;2023-02-10T05:11:06;6.00;;;5.60;;
18336;SDS011;9294;51.106;7.028;2023-02-10T05:13:33;6.65;;;6.15;;
18336;SDS011;9294;51.106;7.028;2023-02-10T05:16:00;6.15;;;5.70;;
18336;SDS011;9294;51.106;7.028;2023-02-10T05:18:27;6.57;;;6.18;;
18336;SDS011;9294;51.106;7.028;2023-02-10T05:20:55;6.40;;;5.97;;
18336;SDS011;9294;51.106;7.028;2023-02-10T05:23:22;6.18;;;5.78;;
18336;SDS011;9294;51.106;7.028;2023-02-10T05:25:50;7.03;;;6.45;;
18336;SDS011;9294;51.106;7.028;2023-02-10T05:28:17;6.25;;;5.85;;
18336;SDS011;9294;51.106;7.028;2023-02-10T05:30:44;6.07;;;5.68;;
18336;SDS011;9294;51.106;7.028;2023-02-10T05:33:12;6.88;;;6.38;;
18336;SDS011;9294;51.106;7.028;2023-02-10T05:35:39;6.13;;;5.72;;
18336;SDS011;9294;51.106;7.028;2023-02-10T05:38:07;7.45;;;6.75;;
18336;SDS011;9294;51.106;7.028;2023-02-10T05:40:33;6.65;;;6.15;;
18336;SDS011;9294;51.106;7.028;2023-02-10T05:43:00;6.18;;;5.78;;
18336;SDS011;9294;51.106;7.028;2023-02-10T05:45:27;6.05;;;5.63;;
18336;SDS011;9294;51.106;7.028;2023-02-10T05:47:54;6.25;;;5.78;;
18336;SDS011;9294;51.106;7.028;2023-02-10T05:50:21;6.60;;;6.10;;
18336;SDS011;9294;51.106;7.028;2023-02-10T05:52:47;6.93;;;6.43;;
18336;SDS011;9294;51.106;7.028;2023-02-10T05:55:15;6.20;;;5.75;;
18336;SDS011;9294;51.106;7.028;2023-02-10T05:57:42;6.63;;;6.13;;
18336;SDS011;9294;51.106;7.028;2023-02-10T06:00:09;6.47;;;5.97;;
18336;SDS011;9294;51.106;7.028;2023-02-10T06:02:37;6.30;;;5.90;;
18336;SDS011;9294;51.106;7.028;2023-02-10T06:05:04;7.38;;;6.75;;
18336;SDS011;9294;51.106;7.028;2023-02-10T06:07:31;6.55;;;6.05;;
18336;SDS011;9294;51.106;7.028;2023-02-10T06:09:58;6.10;;;5.70;;
18336;SDS011;9294;51.106;7.028;2023-02-10T06:12:26;7.18;;;6.63;;
18336;SDS011;9294;51.106;7.028;2023-02-10T06:14:53;6.57;;;6.03;;
18336;SDS011;9294;51.106;7.028;2023-02-10T06:17:19;6.28;;;5.80;;
18336;SDS011;9294;51.106;7.028;2023-02-10T06:19:46;6.45;;;6.00;;
18336;SDS011;9294;51.106;7.028;2023-02-10T06:22:13;7.18;;;6.47;;
18336;SDS011;9294;51.106;7.028;2023-02-10T06:24:39;7.47;;;5.88;;
18336;SDS011;9294;51.106;7.028;2023-02-10T06:27:07;8.75;;;6.93;;
18336;SDS011;9294;51.106;7.028;2023-02-10T06:29:35;6.40;;;5.90;;
18336;SDS011;9294;51.106;7.028;2023-02-10T06:32:02;6.75;;;6.05;;
18336;SDS011;9294;51.106;7.028;2023-02-10T06:34:29;7.35;;;6.75;;
18336;SDS011;9294;51.106;7.028;2023-02-10T06:36:55;6.40;;;5.80;;
18336;SDS011;9294;51.106;7.028;2023-02-10T06:39:22;6.47;;;5.97;;
18336;SDS011;9294;51.106;7.028;2023-02-10T06:41:49;6.78;;;6.28;;
18336;SDS011;9294;51.106;7.028;2023-02-10T06:44:16;6.60;;;6.10;;
18336;SDS011;9294;51.106;7.028;2023-02-10T06:46:44;7.50;;;6.90;;
18336;SDS011;9294;51.106;7.028;2023-02-10T06:49:10;6.38;;;5.78;;
18336;SDS011;9294;51.106;7.028;2023-02-10T06:51:37;6.50;;;6.00;;
18336;SDS011;9294;51.106;7.028;2023-02-10T06:54:04;6.95;;;6.35;;
18336;SDS011;9294;51.106;7.028;2023-02-10T06:56:31;7.10;;;6.50;;
18336;SDS011;9294;51.106;7.028;2023-02-10T06:58:57;7.18;;;6.53;;
18336;SDS011;9294;51.106;7.028;2023-02-10T07:01:24;7.13;;;6.63;;
18336;SDS011;9294;51.106;7.028;2023-02-10T07:03:52;7.03;;;6.53;;
18336;SDS011;9294;51.106;7.028;2023-02-10T07:06:18;6.97;;;6.28;;
18336;SDS011;9294;51.106;7.028;2023-02-10T07:08:45;7.10;;;6.45;;
18336;SDS011;9294;51.106;7.028;2023-02-10T07:11:12;7.35;;;6.75;;
18336;SDS011;9294;51.106;7.028;2023-02-10T07:13:39;8.02;;;7.22;;
18336;SDS011;9294;51.106;7.028;2023-02-10T07:16:05;7.65;;;7.05;;
18336;SDS011;9294;51.106;7.028;2023-02-10T07:18:32;7.18;;;6.53;;
18336;SDS011;9294;51.106;7.028;2023-02-10T07:21:00;7.90;;;6.20;;
18336;SDS011;9294;51.106;7.028;2023-02-10T07:23:27;7.38;;;6.60;;
18336;SDS011;9294;51.106;7.028;2023-02-10T07:25:53;7.32;;;6.63;;
18336;SDS011;9294;51.106;7.028;2023-02-10T07:28:20;6.93;;;6.30;;
18336;SDS011;9294;51.106;7.028;2023-02-10T07:30:47;6.80;;;6.20;;
18336;SDS011;9294;51.106;7.028;2023-02-10T07:33:13;6.57;;;5.97;;
18336;SDS011;9294;51.106;7.028;2023-02-10T07:35:40;6.88;;;6.35;;
18336;SDS011;9294;51.106;7.028;2023-02-10T07:38:08;6.93;;;6.32;;
18336;SDS011;9294;51.106;7.028;2023-02-10T07:40:35;7.50;;;6.82;;
18336;SDS011;9294;51.106;7.028;2023-02-10T07:43:01;7.95;;;7.32;;
18336;SDS011;9294;51.106;7.028;2023-02-10T07:45:28;9.10;;;8.32;;
18336;SDS011;9294;51.106;7.028;2023-02-10T07:47:56;9.00;;;8.10;;
18336;SDS011;9294;51.106;7.028;2023-02-10T07:50:23;8.00;;;7.30;;
18336;SDS011;9294;51.106;7.028;2023-02-10T07:52:50;13.80;;;9.73;;
18336;SDS011;9294;51.106;7.028;2023-02-10T07:55:19;10.40;;;9.40;;
18336;SDS011;9294;51.106;7.028;2023-02-10T07:57:45;12.27;;;9.95;;
18336;SDS011;9294;51.106;7.028;2023-02-10T08:00:14;9.55;;;8.45;;
18336;SDS011;9294;51.106;7.028;2023-02-10T08:02:41;9.82;;;8.27;;
18336;SDS011;9294;51.106;7.028;2023-02-10T08:05:08;10.10;;;8.20;;
18336;SDS011;9294;51.106;7.028;2023-02-10T08:07:35;9.52;;;8.73;;
18336;SDS011;9294;51.106;7.028;2023-02-10T08:10:02;7.95;;;7.20;;
18336;SDS011;9294;51.106;7.028;2023-02-10T08:12:31;8.38;;;7.32;;
18336;SDS011;9294;51.106;7.028;2023-02-10T08:14:58;8.05;;;7.35;;
18336;SDS011;9294;51.106;7.028;2023-02-10T08:17:25;11.27;;;7.60;;
18336;SDS011;9294;51.106;7.028;2023-02-10T08:19:53;11.57;;;7.90;;
18336;SDS011;9294;51.106;7.028;2023-02-10T08:22:19;7.93;;;7.10;;
18336;SDS011;9294;51.106;7.028;2023-02-10T08:24:46;7.32;;;6.72;;
18336;SDS011;9294;51.106;7.028;2023-02-10T08:27:13;7.57;;;6.88;;
18336;SDS011;9294;51.106;7.028;2023-02-10T08:29:41;7.78;;;7.07;;
18336;SDS011;9294;51.106;7.028;2023-02-10T08:32:08;7.03;;;6.43;;
18336;SDS011;9294;51.106;7.028;2023-02-10T08:34:35;8.50;;;6.35;;
18336;SDS011;9294;51.106;7.028;2023-02-10T08:37:03;7.30;;;6.60;;
18336;SDS011;9294;51.106;7.028;2023-02-10T08:39:30;7.20;;;6.63;;
18336;SDS011;9294;51.106;7.028;2023-02-10T08:41:56;7.13;;;6.40;;
18336;SDS011;9294;51.106;7.028;2023-02-10T08:44:23;6.30;;;5.88;;
18336;SDS011;9294;51.106;7.028;2023-02-10T08:46:51;7.63;;;6.72;;
18336;SDS011;9294;51.106;7.028;2023-02-10T08:49:18;8.65;;;6.85;;
18336;SDS011;9294;51.106;7.028;2023-02-10T08:51:47;10.27;;;6.90;;
18336;SDS011;9294;51.106;7.028;2023-02-10T08:54:14;7.32;;;6.40;;
18336;SDS011;9294;51.106;7.028;2023-02-10T08:56:40;7.70;;;6.72;;
18336;SDS011;9294;51.106;7.028;2023-02-10T08:59:07;7.45;;;6.40;;
18336;SDS011;9294;51.106;7.028;2023-02-10T09:01:34;9.32;;;6.78;;
18336;SDS011;9294;51.106;7.028;2023-02-10T09:04:04;12.48;;;6.55;;
18336;SDS011;9294;51.106;7.028;2023-02-10T09:06:32;7.65;;;6.93;;
18336;SDS011;9294;51.106;7.028;2023-02-10T09:09:03;6.53;;;5.93;;
18336;SDS011;9294;51.106;7.028;2023-02-10T09:11:31;7.95;;;7.25;;
18336;SDS011;9294;51.106;7.028;2023-02-10T09:13:58;6.78;;;6.10;;
18336;SDS011;9294;51.106;7.028;2023-02-10T09:16:25;12.40;;;10.20;;
18336;SDS011;9294;51.106;7.028;2023-02-10T09:18:52;11.65;;;8.85;;
18336;SDS011;9294;51.106;7.028;2023-02-10T09:21:20;9.88;;;8.13;;
18336;SDS011;9294;51.106;7.028;2023-02-10T09:23:47;12.63;;;8.63;;
18336;SDS011;9294;51.106;7.028;2023-02-10T09:26:14;19.35;;;8.20;;
18336;SDS011;9294;51.106;7.028;2023-02-10T09:28:40;16.65;;;7.80;;
18336;SDS011;9294;51.106;7.028;2023-02-10T09:31:08;24.65;;;8.27;;
18336;SDS011;9294;51.106;7.028;2023-02-10T09:33:35;19.27;;;8.82;;
18336;SDS011;9294;51.106;7.028;2023-02-10T09:36:03;15.65;;;8.57;;
18336;SDS011;9294;51.106;7.028;2023-02-10T09:38:32;14.45;;;8.32;;
18336;SDS011;9294;51.106;7.028;2023-02-10T09:41:02;13.73;;;8.43;;
18336;SDS011;9294;51.106;7.028;2023-02-10T09:43:52;10.23;;;7.78;;
18336;SDS011;9294;51.106;7.028;2023-02-10T09:46:29;10.98;;;8.43;;
18336;SDS011;9294;51.106;7.028;2023-02-10T09:49:14;11.07;;;7.32;;
18336;SDS011;9294;51.106;7.028;2023-02-10T09:52:07;8.73;;;7.80;;
18336;SDS011;9294;51.106;7.028;2023-02-10T09:54:42;8.40;;;7.40;;
18336;SDS011;9294;51.106;7.028;2023-02-10T09:57:12;8.02;;;7.22;;
18336;SDS011;9294;51.106;7.028;2023-02-10T09:59:41;8.95;;;8.10;;
18336;SDS011;9294;51.106;7.028;2023-02-10T10:02:11;12.30;;;8.00;;
18336;SDS011;9294;51.106;7.028;2023-02-10T10:04:43;13.43;;;8.40;;
18336;SDS011;9294;51.106;7.028;2023-02-10T10:07:13;8.35;;;7.60;;
18336;SDS011;9294;51.106;7.028;2023-02-10T10:09:50;7.35;;;6.75;;
18336;SDS011;9294;51.106;7.028;2023-02-10T10:12:21;9.55;;;8.60;;
18336;SDS011;9294;51.106;7.028;2023-02-10T10:14:48;13.35;;;8.48;;
18336;SDS011;9294;51.106;7.028;2023-02-10T10:17:20;8.55;;;7.75;;
18336;SDS011;9294;51.106;7.028;2023-02-10T10:20:06;14.65;;;7.60;;
18336;SDS011;9294;51.106;7.028;2023-02-10T10:22:55;8.13;;;7.43;;
18336;SDS011;9294;51.106;7.028;2023-02-10T10:25:41;8.10;;;7.30;;
18336;SDS011;9294;51.106;7.028;2023-02-10T10:28:18;12.55;;;6.70;;
18336;SDS011;9294;51.106;7.028;2023-02-10T10:30:57;8.20;;;7.38;;
18336;SDS011;9294;51.106;7.028;2023-02-10T10:33:28;8.15;;;7.32;;
18336;SDS011;9294;51.106;7.028;2023-02-10T10:35:59;8.30;;;7.45;;
18336;SDS011;9294;51.106;7.028;2023-02-10T10:38:28;10.82;;;8.40;;
18336;SDS011;9294;51.106;7.028;2023-02-10T10:40:58;8.20;;;7.40;;
18336;SDS011;9294;51.106;7.028;2023-02-10T10:43:30;13.48;;;8.20;;
18336;SDS011;9294;51.106;7.028;2023-02-10T10:46:03;9.23;;;7.55;;
18336;SDS011;9294;51.106;7.028;2023-02-10T10:48:37;9.15;;;8.27;;
18336;SDS011;9294;51.106;7.028;2023-02-10T10:51:08;8.48;;;7.60;;
18336;SDS011;9294;51.106;7.028;2023-02-10T10:53:37;10.52;;;7.57;;
18336;SDS011;9294;51.106;7.028;2023-02-10T10:56:10;11.60;;;8.45;;
18336;SDS011;9294;51.106;7.028;2023-02-10T10:58:42;9.15;;;7.60;;
18336;SDS011;9294;51.106;7.028;2023-02-10T11:01:10;8.30;;;7.15;;
18336;SDS011;9294;51.106;7.028;2023-02-10T11:03:38;6.82;;;6.32;;
18336;SDS011;9294;51.106;7.028;2023-02-10T11:06:05;9.82;;;7.63;;
18336;SDS011;9294;51.106;7.028;2023-02-10T11:08:35;7.95;;;7.25;;
18336;SDS011;9294;51.106;7.028;2023-02-10T11:11:08;8.23;;;7.30;;
18336;SDS011;9294;51.106;7.028;2023-02-10T11:13:38;7.95;;;7.25;;
18336;SDS011;9294;51.106;7.028;2023-02-10T11:16:13;8.65;;;6.82;;
18336;SDS011;9294;51.106;7.028;2023-02-10T11:18:50;8.18;;;7.35;;
18336;SDS011;9294;51.106;7.028;2023-02-10T11:21:19;10.07;;;7.38;;
18336;SDS011;9294;51.106;7.028;2023-02-10T11:23:49;8.68;;;6.80;;
18336;SDS011;9294;51.106;7.028;2023-02-10T11:26:20;8.52;;;6.93;;
18336;SDS011;9294;51.106;7.028;2023-02-10T11:28:48;10.15;;;7.47;;
18336;SDS011;9294;51.106;7.028;2023-02-10T11:31:22;8.77;;;6.60;;
18336;SDS011;9294;51.106;7.028;2023-02-10T11:33:57;8.48;;;7.57;;
18336;SDS011;9294;51.106;7.028;2023-02-10T11:36:29;7.55;;;6.70;;
18336;SDS011;9294;51.106;7.028;2023-02-10T11:39:00;7.10;;;6.40;;
18336;SDS011;9294;51.106;7.028;2023-02-10T11:41:32;8.77;;;7.50;;
18336;SDS011;9294;51.106;7.028;2023-02-10T11:44:00;8.07;;;7.07;;
18336;SDS011;9294;51.106;7.028;2023-02-10T11:46:27;8.02;;;7.22;;
18336;SDS011;9294;51.106;7.028;2023-02-10T11:48:56;7.57;;;6.82;;
18336;SDS011;9294;51.106;7.028;2023-02-10T11:51:25;7.93;;;6.45;;
18336;SDS011;9294;51.106;7.028;2023-02-10T11:53:52;10.20;;;7.18;;
18336;SDS011;9294;51.106;7.028;2023-02-10T11:56:20;7.90;;;6.63;;
18336;SDS011;9294;51.106;7.028;2023-02-10T11:59:14;9.32;;;7.38;;
18336;SDS011;9294;51.106;7.028;2023-02-10T12:01:53;7.45;;;6.70;;
18336;SDS011;9294;51.106;7.028;2023-02-10T12:04:32;6.97;;;6.38;;
18336;SDS011;9294;51.106;7.028;2023-02-10T12:07:25;9.80;;;5.95;;
18336;SDS011;9294;51.106;7.028;2023-02-10T12:10:04;9.18;;;6.93;;
18336;SDS011;9294;51.106;7.028;2023-02-10T12:12:39;7.18;;;6.57;;
18336;SDS011;9294;51.106;7.028;2023-02-10T12:15:16;6.90;;;6.30;;
18336;SDS011;9294;51.106;7.028;2023-02-10T12:17:52;9.02;;;6.82;;
18336;SDS011;9294;51.106;7.028;2023-02-10T12:20:34;7.75;;;6.93;;
18336;SDS011;9294;51.106;7.028;2023-02-10T12:23:19;9.15;;;7.15;;
18336;SDS011;9294;51.106;7.028;2023-02-10T12:26:09;8.20;;;6.80;;
18336;SDS011;9294;51.106;7.028;2023-02-10T12:28:43;8.30;;;7.38;;
18336;SDS011;9294;51.106;7.028;2023-02-10T12:31:23;8.23;;;7.03;;
18336;SDS011;9294;51.106;7.028;2023-02-10T12:34:03;8.98;;;7.45;;
18336;SDS011;9294;51.106;7.028;2023-02-10T12:36:44;8.00;;;7.05;;
18336;SDS011;9294;51.106;7.028;2023-02-10T12:39:19;7.43;;;6.72;;
18336;SDS011;9294;51.106;7.028;2023-02-10T12:41:51;7.32;;;6.63;;
18336;SDS011;9294;51.106;7.028;2023-02-10T12:44:28;6.88;;;6.05;;
18336;SDS011;9294;51.106;7.028;2023-02-10T12:47:11;10.57;;;7.30;;
18336;SDS011;9294;51.106;7.028;2023-02-10T12:49:49;8.48;;;7.05;;
18336;SDS011;9294;51.106;7.028;2023-02-10T12:52:26;7.90;;;6.22;;
18336;SDS011;9294;51.106;7.028;2023-02-10T12:55:00;10.57;;;6.47;;
18336;SDS011;9294;51.106;7.028;2023-02-10T12:57:33;7.50;;;6.78;;
18336;SDS011;9294;51.106;7.028;2023-02-10T13:00:09;9.60;;;6.03;;
18336;SDS011;9294;51.106;7.028;2023-02-10T13:02:44;9.90;;;6.93;;
18336;SDS011;9294;51.106;7.028;2023-02-10T13:05:15;8.93;;;6.55;;
18336;SDS011;9294;51.106;7.028;2023-02-10T13:07:48;9.27;;;6.50;;
18336;SDS011;9294;51.106;7.028;2023-02-10T13:10:20;7.97;;;6.20;;
18336;SDS011;9294;51.106;7.028;2023-02-10T13:12:53;7.47;;;6.78;;
18336;SDS011;9294;51.106;7.028;2023-02-10T13:15:24;7.15;;;5.95;;
18336;SDS011;9294;51.106;7.028;2023-02-10T13:17:55;7.93;;;6.03;;
18336;SDS011;9294;51.106;7.028;2023-02-10T13:20:27;11.00;;;7.18;;
18336;SDS011;9294;51.106;7.028;2023-02-10T13:23:04;7.82;;;5.93;;
18336;SDS011;9294;51.106;7.028;2023-02-10T13:25:44;10.20;;;7.30;;
18336;SDS011;9294;51.106;7.028;2023-02-10T13:28:22;9.27;;;7.95;;
18336;SDS011;9294;51.106;7.028;2023-02-10T13:31:05;7.72;;;6.80;;
18336;SDS011;9294;51.106;7.028;2023-02-10T13:33:49;9.82;;;7.22;;
18336;SDS011;9294;51.106;7.028;2023-02-10T13:36:26;7.53;;;6.82;;
18336;SDS011;9294;51.106;7.028;2023-02-10T13:38:57;8.25;;;7.05;;
18336;SDS011;9294;51.106;7.028;2023-02-10T13:41:26;9.50;;;7.47;;
18336;SDS011;9294;51.106;7.028;2023-02-10T13:47:12;10.68;;;7.55;;
18336;SDS011;9294;51.106;7.028;2023-02-10T13:49:52;8.07;;;7.15;;
18336;SDS011;9294;51.106;7.028;2023-02-10T13:52:22;7.85;;;7.15;;
18336;SDS011;9294;51.106;7.028;2023-02-10T13:54:55;7.88;;;7.00;;
18336;SDS011;9294;51.106;7.028;2023-02-10T13:57:25;7.20;;;6.53;;
18336;SDS011;9294;51.106;7.028;2023-02-10T13:59:53;7.53;;;6.53;;
18336;SDS011;9294;51.106;7.028;2023-02-10T14:02:36;6.47;;;5.88;;
18336;SDS011;9294;51.106;7.028;2023-02-10T14:07:51;6.88;;;6.20;;
18336;SDS011;9294;51.106;7.028;2023-02-10T14:10:33;6.63;;;5.53;;
18336;SDS011;9294;51.106;7.028;2023-02-10T14:13:01;7.10;;;5.78;;
18336;SDS011;9294;51.106;7.028;2023-02-10T14:15:31;7.13;;;5.72;;
18336;SDS011;9294;51.106;7.028;2023-02-10T14:18:01;5.55;;;5.15;;
18336;SDS011;9294;51.106;7.028;2023-02-10T14:20:32;5.55;;;5.15;;
18336;SDS011;9294;51.106;7.028;2023-02-10T14:23:01;6.45;;;5.78;;
18336;SDS011;9294;51.106;7.028;2023-02-10T14:25:34;6.30;;;5.75;;
18336;SDS011;9294;51.106;7.028;2023-02-10T14:28:04;6.00;;;5.47;;
18336;SDS011;9294;51.106;7.028;2023-02-10T14:30:37;5.93;;;5.25;;
18336;SDS011;9294;51.106;7.028;2023-02-10T14:33:06;6.50;;;5.40;;
18336;SDS011;9294;51.106;7.028;2023-02-10T14:35:49;7.57;;;5.50;;
18336;SDS011;9294;51.106;7.028;2023-02-10T14:38:19;5.50;;;5.00;;
18336;SDS011;9294;51.106;7.028;2023-02-10T14:40:48;6.20;;;5.60;;
18336;SDS011;9294;51.106;7.028;2023-02-10T14:43:16;7.00;;;5.50;;
18336;SDS011;9294;51.106;7.028;2023-02-10T14:45:48;6.28;;;5.78;;
18336;SDS011;9294;51.106;7.028;2023-02-10T14:48:15;5.82;;;5.32;;
18336;SDS011;9294;51.106;7.028;2023-02-10T14:50:55;6.45;;;5.85;;
18336;SDS011;9294;51.106;7.028;2023-02-10T14:53:25;5.85;;;5.22;;
18336;SDS011;9294;51.106;7.028;2023-02-10T14:55:52;7.03;;;5.85;;
18336;SDS011;9294;51.106;7.028;2023-02-10T14:58:20;7.35;;;5.05;;
18336;SDS011;9294;51.106;7.028;2023-02-10T15:00:54;5.70;;;5.10;;
18336;SDS011;9294;51.106;7.028;2023-02-10T15:03:23;8.45;;;4.97;;
18336;SDS011;9294;51.106;7.028;2023-02-10T15:05:52;5.68;;;5.10;;
18336;SDS011;9294;51.106;7.028;2023-02-10T15:08:26;8.45;;;5.82;;
18336;SDS011;9294;51.106;7.028;2023-02-10T15:11:04;5.88;;;5.38;;
18336;SDS011;9294;51.106;7.028;2023-02-10T15:13:34;7.22;;;5.20;;
18336;SDS011;9294;51.106;7.028;2023-02-10T15:16:06;5.97;;;5.18;;
18336;SDS011;9294;51.106;7.028;2023-02-10T15:18:36;6.10;;;5.50;;
18336;SDS011;9294;51.106;7.028;2023-02-10T15:21:21;6.13;;;5.25;;
18336;SDS011;9294;51.106;7.028;2023-02-10T15:23:53;6.22;;;5.50;;
18336;SDS011;9294;51.106;7.028;2023-02-10T15:26:22;5.68;;;5.18;;
18336;SDS011;9294;51.106;7.028;2023-02-10T15:28:59;5.40;;;4.80;;